Portada
METAR-TAF:

METAR-TAF

Aeroports :

Concord, Carolina del Nord, Estats Units d'Amèrica

latitud: 35-23-07N, longitud: 080-42-35W, altitud: 210 m

Observació

L'informe es va fer fa 47 minuts, a les 22:50 UTC
Vent calma
Temperatura 29°C
Humitat 70%
Pressió 1019 hPa
Visibilitat: 16.1 km
Núvols disperses a una alçada de 3400 ft

METAR: KJQF 072250Z 00000KT 10SM SCT034 29/23 A3010

Hora: 19:37 (23:37 UTC)


TAF: manca

Observacions i pronòstics meteorològics de més de 4000 aeroports (METAR i TAF).

Les estacions disponibles són els punts grocs i vermells al mapa.

Posi el ratolí al punt desitjat per veure el nom de l'estació.

Feu clic per veure les observacions i els pronòstics meteorològics.

Per canviar el mapa: feu clic els botons verds amb una creu de color negre per apropar; al botó verd amb un guió per allunyar la imatge; o en les fletxes verdes per a mapes adjacents.


METAR-TAF: